createdAt,value
2023-03-29T00:01:36.029Z,31.20
2023-03-29T00:05:45.001Z,33.80
2023-03-29T00:09:52.999Z,31.90
2023-03-29T00:14:00.741Z,34.40
2023-03-29T00:18:09.363Z,28.60
2023-03-29T00:22:17.584Z,30.60
2023-03-29T00:26:25.048Z,41.60
2023-03-29T00:30:32.773Z,40.60
2023-03-29T00:34:46.194Z,35.20
2023-03-29T00:38:57.089Z,29.60
2023-03-29T00:43:04.581Z,29.80
2023-03-29T00:47:12.138Z,26.40
2023-03-29T00:51:20.201Z,24.80
2023-03-29T00:55:32.013Z,23.50
2023-03-29T00:59:40.340Z,21.90
2023-03-29T01:03:54.702Z,25.00
2023-03-29T01:08:07.428Z,28.00
2023-03-29T01:12:19.226Z,25.50
2023-03-29T01:16:28.648Z,23.30
2023-03-29T01:20:49.367Z,23.80
2023-03-29T01:25:07.707Z,19.40
2023-03-29T01:29:18.586Z,22.70
2023-03-29T01:33:29.486Z,26.30
2023-03-29T01:37:41.400Z,30.60
2023-03-29T01:41:53.161Z,25.00
2023-03-29T01:46:04.736Z,22.70
2023-03-29T01:50:17.803Z,25.10
2023-03-29T01:54:28.347Z,32.60
2023-03-29T01:58:38.504Z,37.30
2023-03-29T02:02:47.508Z,36.90
2023-03-29T02:06:57.553Z,39.20
2023-03-29T02:11:05.460Z,30.10
2023-03-29T02:15:18.574Z,24.90
2023-03-29T02:19:28.410Z,21.60
2023-03-29T02:23:41.488Z,19.30
2023-03-29T02:27:49.086Z,16.40
2023-03-29T02:32:00.816Z,26.00
2023-03-29T02:36:11.758Z,30.00
2023-03-29T02:40:24.349Z,25.00
2023-03-29T02:44:37.513Z,21.40
2023-03-29T02:48:44.997Z,22.10
2023-03-29T02:52:57.406Z,20.60
2023-03-29T02:57:07.685Z,20.40
2023-03-29T03:01:15.063Z,23.80
2023-03-29T03:05:24.957Z,19.10
2023-03-29T03:09:34.640Z,24.60
2023-03-29T03:13:42.985Z,25.40
2023-03-29T03:17:50.449Z,33.70
2023-03-29T03:21:58.447Z,31.50
2023-03-29T03:26:06.094Z,35.40
2023-03-29T03:30:16.177Z,43.40
2023-03-29T03:34:23.780Z,35.80
2023-03-29T03:38:31.952Z,28.40
2023-03-29T03:42:40.648Z,23.20
2023-03-29T03:46:48.251Z,19.60
2023-03-29T03:50:57.277Z,26.20
2023-03-29T03:55:05.986Z,22.90
2023-03-29T03:59:13.826Z,23.80
2023-03-29T04:03:22.927Z,21.10
2023-03-29T04:07:31.492Z,21.00
2023-03-29T04:11:39.035Z,23.60
2023-03-29T04:15:50.077Z,29.20
2023-03-29T04:19:58.708Z,32.50
2023-03-29T04:24:07.293Z,26.50
2023-03-29T04:28:16.587Z,43.30
2023-03-29T04:32:25.155Z,36.30
2023-03-29T04:36:32.833Z,30.50
2023-03-29T04:40:40.550Z,27.00
2023-03-29T04:44:50.252Z,24.70
2023-03-29T04:49:03.187Z,24.10
2023-03-29T04:53:16.756Z,22.50
2023-03-29T04:57:29.387Z,20.20
2023-03-29T05:01:38.293Z,18.90
2023-03-29T05:05:48.680Z,18.10
2023-03-29T05:09:57.144Z,16.40
2023-03-29T05:14:07.456Z,18.10
2023-03-29T05:18:22.890Z,17.50
2023-03-29T05:22:32.358Z,18.40
2023-03-29T05:26:45.275Z,25.20
2023-03-29T05:31:04.461Z,25.40
2023-03-29T05:35:13.043Z,24.80
2023-03-29T05:39:26.664Z,23.80
2023-03-29T05:43:42.904Z,26.10
2023-03-29T05:47:52.413Z,26.00
2023-03-29T05:52:02.579Z,25.90
2023-03-29T05:56:15.611Z,28.20
2023-03-29T06:00:30.158Z,31.60
2023-03-29T06:04:45.121Z,24.00
2023-03-29T06:08:53.117Z,17.90
2023-03-29T06:13:09.388Z,19.90
2023-03-29T06:17:17.835Z,15.40
2023-03-29T06:21:33.308Z,14.00
2023-03-29T06:25:45.263Z,13.30
2023-03-29T06:30:01.590Z,13.30
2023-03-29T06:34:12.451Z,11.70
2023-03-29T06:38:26.913Z,12.90
2023-03-29T06:42:39.203Z,16.30
2023-03-29T06:46:49.722Z,16.50
2023-03-29T06:50:57.644Z,17.40
2023-03-29T06:55:08.794Z,14.90
2023-03-29T06:59:35.013Z,15.50
2023-03-29T07:03:46.810Z,13.00
2023-03-29T07:08:00.465Z,15.00
2023-03-29T07:12:13.540Z,12.20
2023-03-29T07:16:30.815Z,14.90
2023-03-29T07:20:40.912Z,15.90
2023-03-29T07:24:54.685Z,16.50
2023-03-29T07:29:03.761Z,13.80
2023-03-29T07:33:13.244Z,13.50
2023-03-29T07:37:32.441Z,14.20
2023-03-29T07:41:40.900Z,12.30
2023-03-29T07:45:49.339Z,15.40
2023-03-29T07:49:57.524Z,15.00
2023-03-29T07:54:07.782Z,12.60
2023-03-29T07:58:17.935Z,13.60
2023-03-29T08:02:27.556Z,11.60
2023-03-29T08:06:35.527Z,13.90
2023-03-29T08:10:46.166Z,11.80
2023-03-29T08:14:55.528Z,11.20
2023-03-29T08:19:03.878Z,11.30
2023-03-29T08:23:14.050Z,11.80
2023-03-29T08:27:22.664Z,11.40
2023-03-29T08:31:30.876Z,11.20
2023-03-29T08:35:40.451Z,9.90
2023-03-29T08:39:49.249Z,11.80
2023-03-29T08:44:16.498Z,9.70
2023-03-29T08:48:29.955Z,9.00
2023-03-29T08:52:40.526Z,10.30
2023-03-29T08:56:50.049Z,11.80
2023-03-29T09:00:59.606Z,9.70
2023-03-29T09:05:20.732Z,9.00
2023-03-29T09:09:36.249Z,13.00
2023-03-29T09:13:50.994Z,9.50
2023-03-29T09:18:07.176Z,9.90
2023-03-29T09:22:18.528Z,12.30
2023-03-29T09:26:32.110Z,11.30
2023-03-29T09:30:53.385Z,12.60
2023-03-29T09:35:09.360Z,11.90
2023-03-29T09:39:18.443Z,10.60
2023-03-29T09:43:33.238Z,12.80
2023-03-29T09:47:43.250Z,12.60
2023-03-29T09:51:52.980Z,9.80
2023-03-29T09:56:01.115Z,11.40
2023-03-29T10:00:14.802Z,10.40
2023-03-29T10:04:24.837Z,14.10
2023-03-29T10:08:37.867Z,13.00
2023-03-29T10:12:50.549Z,12.90
2023-03-29T10:16:59.574Z,14.40
2023-03-29T10:21:11.449Z,11.90
2023-03-29T10:25:20.241Z,10.20
2023-03-29T10:29:30.201Z,12.90
2023-03-29T10:33:39.425Z,11.80
2023-03-29T10:37:54.761Z,12.80
2023-03-29T10:42:04.139Z,11.40
2023-03-29T10:46:14.587Z,9.90
2023-03-29T10:50:23.844Z,10.90
2023-03-29T10:54:32.292Z,10.80
2023-03-29T10:58:48.851Z,9.80
2023-03-29T11:03:13.115Z,11.00
2023-03-29T11:07:37.849Z,10.90
2023-03-29T11:12:14.425Z,8.50
2023-03-29T11:16:34.047Z,9.70
2023-03-29T11:20:45.964Z,9.50
2023-03-29T11:25:08.372Z,9.90
2023-03-29T11:29:21.939Z,7.60
2023-03-29T11:33:39.063Z,9.10
2023-03-29T11:37:54.658Z,10.50
2023-03-29T11:42:09.616Z,9.60
2023-03-29T11:46:22.327Z,7.80
2023-03-29T11:50:35.339Z,8.90
2023-03-29T11:54:47.852Z,10.00
2023-03-29T11:58:59.839Z,10.00
2023-03-29T12:03:12.450Z,8.80
2023-03-29T12:07:22.765Z,11.40
2023-03-29T12:11:37.541Z,8.60
2023-03-29T12:15:47.605Z,8.60
2023-03-29T12:20:04.561Z,10.90
2023-03-29T12:24:15.280Z,9.90
2023-03-29T12:28:34.582Z,9.00
2023-03-29T12:32:56.266Z,9.40
2023-03-29T12:37:18.731Z,8.10
2023-03-29T12:41:29.365Z,12.60
2023-03-29T12:45:41.557Z,10.70
2023-03-29T12:49:55.308Z,8.40
2023-03-29T12:54:11.718Z,9.90
2023-03-29T12:58:54.806Z,9.60
2023-03-29T13:03:21.843Z,8.90
2023-03-29T13:07:45.506Z,12.50
2023-03-29T13:12:03.925Z,10.20
2023-03-29T13:16:21.818Z,9.70
2023-03-29T13:20:48.189Z,8.20
2023-03-29T13:25:08.309Z,8.30
2023-03-29T13:29:49.618Z,8.60
2023-03-29T13:34:02.439Z,8.80
2023-03-29T13:38:19.823Z,9.70
2023-03-29T13:42:42.784Z,9.60
2023-03-29T13:46:50.712Z,8.70
2023-03-29T13:51:02.155Z,8.20
2023-03-29T13:55:14.669Z,8.60
2023-03-29T13:59:26.786Z,9.50
2023-03-29T14:03:40.574Z,13.10
2023-03-29T14:07:54.257Z,9.20
2023-03-29T14:12:03.256Z,11.80
2023-03-29T14:16:18.291Z,8.40
2023-03-29T14:20:29.151Z,8.70
2023-03-29T14:24:42.022Z,10.30
2023-03-29T14:28:50.998Z,8.30
2023-03-29T14:32:59.888Z,10.20
2023-03-29T14:37:11.848Z,10.80
2023-03-29T14:41:19.978Z,7.80
2023-03-29T14:45:29.231Z,8.50
2023-03-29T14:49:37.168Z,8.30
2023-03-29T14:53:45.308Z,9.10
2023-03-29T14:57:55.643Z,9.50
2023-03-29T15:02:03.650Z,9.10
2023-03-29T15:06:12.456Z,9.80
2023-03-29T15:10:22.534Z,9.20
2023-03-29T15:14:35.496Z,7.70
2023-03-29T15:18:47.031Z,9.90
2023-03-29T15:23:01.637Z,9.60
2023-03-29T15:27:18.540Z,12.20
2023-03-29T15:31:35.189Z,11.80
2023-03-29T15:36:03.025Z,9.20
2023-03-29T15:40:17.911Z,12.00
2023-03-29T15:44:28.542Z,11.20
2023-03-29T15:48:36.248Z,12.00
2023-03-29T15:52:46.149Z,11.00
2023-03-29T15:56:56.698Z,11.90
2023-03-29T16:01:11.666Z,10.20
2023-03-29T16:05:22.346Z,10.00
2023-03-29T16:09:30.934Z,10.00
2023-03-29T16:13:39.306Z,10.60
2023-03-29T16:17:47.538Z,11.50
2023-03-29T16:21:57.067Z,12.70
2023-03-29T16:26:06.549Z,11.40
2023-03-29T16:30:16.570Z,12.90
2023-03-29T16:34:27.797Z,17.80
2023-03-29T16:38:37.775Z,12.60
2023-03-29T16:42:47.228Z,13.10
2023-03-29T16:46:58.199Z,17.10
2023-03-29T16:51:10.350Z,16.10
2023-03-29T16:55:20.254Z,15.80
2023-03-29T16:59:29.166Z,18.10
2023-03-29T17:03:38.809Z,13.30
2023-03-29T17:07:47.035Z,12.60
2023-03-29T17:11:55.458Z,13.70
2023-03-29T17:16:03.904Z,12.80
2023-03-29T17:20:14.633Z,14.40
2023-03-29T17:24:23.012Z,15.70
2023-03-29T17:28:31.946Z,14.20
2023-03-29T17:32:41.420Z,13.70
2023-03-29T17:36:49.287Z,12.00
2023-03-29T17:40:57.672Z,16.40
2023-03-29T17:45:07.377Z,17.50
2023-03-29T17:49:15.333Z,15.40
2023-03-29T17:53:23.597Z,13.90
2023-03-29T17:57:33.054Z,12.20
2023-03-29T18:01:41.202Z,18.60
2023-03-29T18:05:50.981Z,12.90
2023-03-29T18:09:59.204Z,12.40
2023-03-29T18:14:07.548Z,12.00
2023-03-29T18:18:15.856Z,12.70
2023-03-29T18:22:24.192Z,12.50
2023-03-29T18:26:33.669Z,11.60
2023-03-29T18:30:41.613Z,12.40
2023-03-29T18:34:49.850Z,11.30
2023-03-29T18:39:05.247Z,11.40
2023-03-29T18:43:14.093Z,16.10
2023-03-29T18:47:22.579Z,16.80
2023-03-29T18:51:31.588Z,15.90
2023-03-29T18:55:39.701Z,19.60
2023-03-29T18:59:47.593Z,19.90
2023-03-29T19:03:56.230Z,20.70
2023-03-29T19:08:05.977Z,19.90
2023-03-29T19:12:15.774Z,22.70
2023-03-29T19:16:24.336Z,17.50
2023-03-29T19:20:33.574Z,20.60
2023-03-29T19:24:41.740Z,14.10
2023-03-29T19:28:50.233Z,15.90
2023-03-29T19:32:58.128Z,14.80
2023-03-29T19:37:05.563Z,16.80
2023-03-29T19:41:13.254Z,19.70
2023-03-29T19:45:21.686Z,15.30
2023-03-29T19:49:29.868Z,14.70
2023-03-29T19:53:39.880Z,15.50
2023-03-29T19:57:50.030Z,16.60
2023-03-29T20:01:58.146Z,16.60
2023-03-29T20:06:08.534Z,16.10
2023-03-29T20:10:16.810Z,15.60
2023-03-29T20:14:24.219Z,16.60
2023-03-29T20:18:32.543Z,14.70
2023-03-29T20:22:42.339Z,14.10
2023-03-29T20:26:49.760Z,17.10
2023-03-29T20:30:57.992Z,14.80
2023-03-29T20:35:06.285Z,15.30
2023-03-29T20:39:17.800Z,14.00
2023-03-29T20:43:26.014Z,13.20
2023-03-29T20:47:34.716Z,14.10
2023-03-29T20:51:43.247Z,14.30
2023-03-29T20:55:53.500Z,17.40
2023-03-29T21:00:02.153Z,13.60
2023-03-29T21:04:11.365Z,13.20
2023-03-29T21:08:20.628Z,14.70
2023-03-29T21:12:28.506Z,13.60
2023-03-29T21:16:36.343Z,14.00
2023-03-29T21:20:44.156Z,15.30
2023-03-29T21:24:52.124Z,14.10
2023-03-29T21:29:00.695Z,12.10
2023-03-29T21:33:09.063Z,12.20
2023-03-29T21:37:19.810Z,14.60
2023-03-29T21:41:28.082Z,12.00
2023-03-29T21:45:36.465Z,14.60
2023-03-29T21:49:45.693Z,12.30
2023-03-29T21:53:53.293Z,13.00
2023-03-29T21:58:02.555Z,12.20
2023-03-29T22:02:10.693Z,11.90
2023-03-29T22:06:18.387Z,12.40
2023-03-29T22:10:26.784Z,11.70
2023-03-29T22:14:35.995Z,11.80
2023-03-29T22:18:44.352Z,11.40
2023-03-29T22:22:53.947Z,11.90
2023-03-29T22:27:02.809Z,12.40
2023-03-29T22:31:11.844Z,11.70
2023-03-29T22:35:20.981Z,13.70
2023-03-29T22:39:28.635Z,12.10
2023-03-29T22:43:36.768Z,12.60
2023-03-29T22:47:48.094Z,9.40
2023-03-29T22:51:55.581Z,12.50
2023-03-29T22:56:03.755Z,11.10
2023-03-29T23:00:13.917Z,11.90
2023-03-29T23:04:21.895Z,11.90
2023-03-29T23:08:30.122Z,12.00
2023-03-29T23:12:38.117Z,11.60
2023-03-29T23:16:46.583Z,10.90
2023-03-29T23:20:59.143Z,12.00
2023-03-29T23:25:08.357Z,10.40
2023-03-29T23:29:17.129Z,10.60
2023-03-29T23:33:25.877Z,11.00
2023-03-29T23:37:34.613Z,12.50
2023-03-29T23:41:42.371Z,9.90
2023-03-29T23:45:50.565Z,10.50
2023-03-29T23:50:02.362Z,9.30
2023-03-29T23:54:10.501Z,11.20
2023-03-29T23:58:19.478Z,9.40
